createdAt,value
2022-09-23T00:04:00.138Z,43.92
2022-09-23T00:09:03.680Z,44.19
2022-09-23T00:14:07.228Z,44.34
2022-09-23T00:19:12.059Z,44.72
2022-09-23T00:24:16.474Z,44.63
2022-09-23T00:29:19.925Z,44.12
2022-09-23T00:34:24.836Z,44.34
2022-09-23T00:39:28.307Z,44.92
2022-09-23T00:44:56.110Z,44.50
2022-09-23T00:50:04.819Z,45.26
2022-09-23T00:55:13.203Z,45.08
2022-09-23T01:00:16.724Z,46.22
2022-09-23T01:05:22.315Z,45.54
2022-09-23T01:10:26.331Z,44.99
2022-09-23T01:15:36.571Z,44.91
2022-09-23T01:20:59.211Z,45.73
2022-09-23T01:26:15.706Z,46.03
2022-09-23T01:31:24.162Z,46.15
2022-09-23T01:36:31.013Z,45.61
2022-09-23T01:41:47.012Z,45.53
2022-09-23T01:46:54.888Z,45.90
2022-09-23T01:52:01.110Z,45.46
2022-09-23T01:57:06.400Z,46.60
2022-09-23T02:02:15.280Z,46.77
2022-09-23T02:07:22.562Z,46.61
2022-09-23T02:12:28.491Z,46.44
2022-09-23T02:17:39.540Z,48.12
2022-09-23T02:22:49.836Z,47.13
2022-09-23T02:27:57.382Z,47.22
2022-09-23T02:33:04.801Z,47.08
2022-09-23T02:38:15.918Z,46.49
2022-09-23T02:43:23.593Z,47.50
2022-09-23T02:48:33.274Z,46.97
2022-09-23T02:53:37.169Z,46.34
2022-09-23T02:58:40.767Z,46.93
2022-09-23T03:03:48.427Z,47.24
2022-09-23T03:08:55.788Z,47.76
2022-09-23T03:14:17.481Z,46.88
2022-09-23T03:19:26.453Z,46.96
2022-09-23T03:24:32.085Z,46.96
2022-09-23T03:29:37.329Z,47.26
2022-09-23T03:34:43.820Z,46.71
2022-09-23T03:39:51.170Z,46.80
2022-09-23T03:44:57.170Z,46.52
2022-09-23T03:50:02.263Z,47.03
2022-09-23T03:55:06.495Z,46.84
2022-09-23T04:00:11.549Z,46.50
2022-09-23T04:05:16.616Z,46.64
2022-09-23T04:10:20.281Z,46.85
2022-09-23T04:15:23.704Z,46.54
2022-09-23T04:20:28.876Z,46.68
2022-09-23T04:25:32.390Z,46.60
2022-09-23T04:30:36.060Z,46.80
2022-09-23T04:35:43.425Z,46.62
2022-09-23T04:40:47.052Z,46.41
2022-09-23T04:45:58.899Z,46.00
2022-09-23T04:51:09.383Z,45.79
2022-09-23T04:56:14.587Z,45.98
2022-09-23T05:01:19.558Z,47.27
2022-09-23T05:06:25.247Z,46.34
2022-09-23T05:11:30.926Z,45.56
2022-09-23T05:16:34.430Z,45.32
2022-09-23T05:21:39.267Z,44.88
2022-09-23T05:26:43.040Z,45.12
2022-09-23T05:31:46.517Z,45.31
2022-09-23T05:36:51.681Z,45.18
2022-09-23T05:41:55.559Z,45.16
2022-09-23T05:46:59.001Z,44.77
2022-09-23T05:52:04.026Z,45.34
2022-09-23T05:57:07.806Z,45.32
2022-09-23T06:02:11.338Z,45.40
2022-09-23T06:07:16.181Z,44.72
2022-09-23T06:12:19.743Z,45.00
2022-09-23T06:17:23.127Z,44.75
2022-09-23T06:22:27.893Z,44.60
2022-09-23T06:27:31.741Z,44.24
2022-09-23T06:32:35.751Z,43.81
2022-09-23T06:37:40.578Z,43.69
2022-09-23T06:42:45.176Z,43.64
2022-09-23T06:47:56.155Z,43.79
2022-09-23T06:53:00.990Z,43.43
2022-09-23T06:58:04.484Z,43.41
2022-09-23T07:03:08.771Z,43.56
2022-09-23T07:08:13.587Z,43.18
2022-09-23T07:13:17.446Z,43.60
2022-09-23T07:18:23.767Z,43.67
2022-09-23T07:23:28.618Z,43.10
2022-09-23T07:28:32.465Z,43.10
2022-09-23T07:33:36.271Z,42.71
2022-09-23T07:38:45.145Z,42.23
2022-09-23T07:43:49.035Z,42.54
2022-09-23T07:48:53.074Z,42.05
2022-09-23T07:53:58.527Z,41.52
2022-09-23T07:59:03.777Z,41.08
2022-09-23T08:04:09.508Z,39.64
2022-09-23T08:09:14.624Z,40.10
2022-09-23T08:14:18.940Z,38.58
2022-09-23T08:19:22.638Z,39.18
2022-09-23T08:24:27.584Z,38.40
2022-09-23T08:29:54.362Z,38.11
2022-09-23T08:43:06.970Z,36.88
2022-09-23T09:02:55.610Z,35.71
2022-09-23T09:08:40.149Z,35.96
2022-09-23T09:13:48.939Z,35.11
2022-09-23T09:25:46.218Z,34.85
2022-09-23T09:37:53.537Z,33.98
2022-09-23T09:43:04.671Z,33.79
2022-09-23T09:48:35.669Z,33.98
2022-09-23T09:53:44.881Z,33.85
2022-09-23T09:58:49.926Z,33.42
2022-09-23T10:03:56.924Z,32.76
2022-09-23T10:09:19.258Z,33.00
2022-09-23T10:14:23.661Z,32.25
2022-09-23T10:19:29.216Z,31.72
2022-09-23T10:24:36.321Z,31.66
2022-09-23T10:29:41.549Z,32.07
2022-09-23T10:34:46.903Z,31.62
2022-09-23T10:40:12.041Z,30.31
2022-09-23T10:45:39.763Z,30.16
2022-09-23T10:50:49.003Z,29.46
2022-09-23T10:56:15.487Z,30.94
2022-09-23T11:01:31.030Z,28.40
2022-09-23T11:06:42.857Z,28.92
2022-09-23T11:11:55.921Z,28.00
2022-09-23T11:17:32.677Z,28.12
2022-09-23T11:22:53.197Z,26.94
2022-09-23T11:28:18.391Z,27.70
2022-09-23T11:33:31.862Z,27.67
2022-09-23T11:38:39.571Z,26.27
2022-09-23T11:43:45.564Z,27.25
2022-09-23T11:48:53.019Z,26.86
2022-09-23T11:54:00.180Z,25.48
2022-09-23T11:59:13.944Z,24.88
2022-09-23T12:04:22.719Z,25.88
2022-09-23T12:09:56.493Z,25.78
2022-09-23T12:15:02.762Z,25.58
2022-09-23T12:20:17.059Z,26.50
2022-09-23T12:25:46.419Z,26.66
2022-09-23T12:30:52.863Z,27.12
2022-09-23T12:35:57.381Z,25.95
2022-09-23T12:41:01.129Z,26.13
2022-09-23T12:46:25.620Z,25.84
2022-09-23T12:51:30.206Z,25.91
2022-09-23T12:57:01.964Z,25.84
2022-09-23T13:02:33.435Z,26.21
2022-09-23T13:07:42.196Z,26.62
2022-09-23T13:12:46.285Z,26.01
2022-09-23T13:17:51.138Z,25.61
2022-09-23T13:23:17.345Z,25.61
2022-09-23T13:28:30.563Z,25.19
2022-09-23T13:33:43.177Z,26.65
2022-09-23T13:38:47.117Z,26.05
2022-09-23T13:43:52.357Z,25.97
2022-09-23T13:48:57.821Z,27.64
2022-09-23T13:54:03.007Z,27.05
2022-09-23T13:59:25.197Z,27.09
2022-09-23T14:04:29.960Z,27.45
2022-09-23T14:09:33.438Z,27.78
2022-09-23T14:14:38.379Z,28.00
2022-09-23T14:19:43.511Z,27.57
2022-09-23T14:24:47.506Z,26.67
2022-09-23T14:29:51.069Z,27.64
2022-09-23T14:35:09.155Z,26.73
2022-09-23T14:40:15.811Z,26.81
2022-09-23T14:45:22.428Z,28.10
2022-09-23T14:50:39.929Z,27.84
2022-09-23T14:55:43.855Z,26.75
2022-09-23T15:00:52.795Z,27.56
2022-09-23T15:05:59.730Z,27.74
2022-09-23T15:11:07.856Z,29.23
2022-09-23T15:16:14.179Z,28.06
2022-09-23T15:21:21.861Z,29.65
2022-09-23T15:26:26.639Z,28.02
2022-09-23T15:31:30.041Z,28.77
2022-09-23T15:36:35.704Z,29.27
2022-09-23T15:41:39.194Z,28.32
2022-09-23T15:46:46.491Z,28.66
2022-09-23T15:51:52.068Z,28.36
2022-09-23T15:56:56.230Z,28.02
2022-09-23T16:02:03.176Z,29.11
2022-09-23T16:07:11.089Z,30.21
2022-09-23T16:12:15.501Z,30.08
2022-09-23T16:17:19.064Z,29.75
2022-09-23T16:22:23.911Z,29.20
2022-09-23T16:27:27.342Z,29.95
2022-09-23T16:32:30.737Z,30.05
2022-09-23T16:37:36.054Z,30.68
2022-09-23T16:42:39.767Z,31.40
2022-09-23T16:47:45.255Z,31.58
2022-09-23T16:52:52.350Z,31.51
2022-09-23T16:57:55.990Z,31.67
2022-09-23T17:03:17.387Z,32.05
2022-09-23T17:08:22.234Z,32.29
2022-09-23T17:13:26.411Z,33.35
2022-09-23T17:18:29.864Z,35.14
2022-09-23T17:23:35.841Z,35.79
2022-09-23T17:28:39.416Z,36.54
2022-09-23T17:33:42.886Z,36.81
2022-09-23T17:38:48.518Z,35.84
2022-09-23T17:43:56.545Z,38.06
2022-09-23T17:48:59.895Z,38.05
2022-09-23T17:54:04.991Z,37.46
2022-09-23T17:59:11.378Z,38.28
2022-09-23T18:04:14.863Z,37.81
2022-09-23T18:09:20.109Z,39.87
2022-09-23T18:14:23.979Z,40.38
2022-09-23T18:19:27.544Z,40.33
2022-09-23T18:24:37.758Z,41.03
2022-09-23T18:29:41.233Z,40.51
2022-09-23T18:34:44.637Z,40.37
2022-09-23T18:39:49.888Z,42.43
2022-09-23T18:44:56.309Z,42.97
2022-09-23T18:50:25.563Z,42.57
2022-09-23T18:55:34.037Z,43.41
2022-09-23T19:00:37.754Z,44.30
2022-09-23T19:05:41.301Z,44.93
2022-09-23T19:10:46.781Z,44.42
2022-09-23T19:15:50.261Z,45.15
2022-09-23T19:20:54.609Z,43.74
2022-09-23T19:26:02.387Z,42.34
2022-09-23T19:31:10.777Z,43.06
2022-09-23T19:36:14.208Z,42.28
2022-09-23T19:41:19.983Z,41.88
2022-09-23T19:46:23.616Z,41.74
2022-09-23T19:51:27.342Z,40.68
2022-09-23T19:56:32.851Z,40.20
2022-09-23T20:01:36.730Z,41.00
2022-09-23T20:06:40.874Z,40.73
2022-09-23T20:11:45.620Z,40.90
2022-09-23T20:16:49.354Z,41.23
2022-09-23T20:22:12.741Z,41.25
2022-09-23T20:27:17.595Z,41.40
2022-09-23T20:32:21.411Z,40.87
2022-09-23T20:37:25.757Z,41.13
2022-09-23T20:42:30.573Z,42.35
2022-09-23T20:47:33.952Z,41.84
2022-09-23T20:52:37.348Z,41.74
2022-09-23T20:57:44.243Z,41.70
2022-09-23T21:02:48.052Z,41.10
2022-09-23T21:07:51.447Z,42.46
2022-09-23T21:12:56.271Z,42.39
2022-09-23T21:18:00.138Z,41.49
2022-09-23T21:23:03.512Z,41.96
2022-09-23T21:28:08.262Z,41.49
2022-09-23T21:33:11.889Z,42.67
2022-09-23T21:38:15.215Z,42.38
2022-09-23T21:43:20.032Z,43.59
2022-09-23T21:48:24.203Z,42.89
2022-09-23T21:53:29.646Z,42.68
2022-09-23T21:58:35.417Z,43.12
2022-09-23T22:03:39.176Z,44.42
2022-09-23T22:08:43.975Z,43.28
2022-09-23T22:13:48.815Z,42.83
2022-09-23T22:18:55.071Z,43.66
2022-09-23T22:24:01.056Z,44.27
2022-09-23T22:29:30.255Z,44.14
2022-09-23T22:34:51.173Z,43.50
2022-09-23T22:39:55.859Z,42.75
2022-09-23T22:45:00.694Z,42.66
2022-09-23T22:50:04.395Z,41.65
2022-09-23T22:55:08.833Z,42.15
2022-09-23T23:00:14.827Z,42.01
2022-09-23T23:05:18.246Z,41.59
2022-09-23T23:10:24.624Z,41.07
2022-09-23T23:15:30.326Z,40.67
2022-09-23T23:20:33.914Z,40.84
2022-09-23T23:25:37.303Z,41.73
2022-09-23T23:30:42.035Z,41.33
2022-09-23T23:35:51.214Z,42.27
2022-09-23T23:40:55.417Z,41.63
2022-09-23T23:46:01.437Z,42.04
2022-09-23T23:51:06.403Z,43.69
2022-09-23T23:56:11.439Z,42.87
